sensor_id;sensor_type;location;lat;lon;timestamp;pressure;altitude;pressure_sealevel;temperature;humidity
65800;BME280;52544;48.116;11.660;2023-02-19T00:00:29;96054.28;;;11.23;68.96
65800;BME280;52544;48.116;11.660;2023-02-19T00:02:55;96059.81;;;11.20;69.04
65800;BME280;52544;48.116;11.660;2023-02-19T00:05:22;96063.44;;;11.19;68.96
65800;BME280;52544;48.116;11.660;2023-02-19T00:07:48;96049.25;;;11.09;69.52
65800;BME280;52544;48.116;11.660;2023-02-19T00:10:13;96046.22;;;11.14;69.44
65800;BME280;52544;48.116;11.660;2023-02-19T00:12:39;96047.06;;;11.14;69.33
65800;BME280;52544;48.116;11.660;2023-02-19T00:15:04;96045.41;;;11.13;69.63
65800;BME280;52544;48.116;11.660;2023-02-19T00:17:30;96037.69;;;11.10;69.53
65800;BME280;52544;48.116;11.660;2023-02-19T00:19:56;96051.91;;;11.09;69.83
65800;BME280;52544;48.116;11.660;2023-02-19T00:22:21;96046.84;;;11.06;70.21
65800;BME280;52544;48.116;11.660;2023-02-19T00:24:47;96048.41;;;11.09;70.35
65800;BME280;52544;48.116;11.660;2023-02-19T00:27:13;96036.00;;;11.09;70.12
65800;BME280;52544;48.116;11.660;2023-02-19T00:29:38;96044.91;;;11.08;70.43
65800;BME280;52544;48.116;11.660;2023-02-19T00:32:04;96037.94;;;11.07;71.32
65800;BME280;52544;48.116;11.660;2023-02-19T00:34:29;96034.31;;;11.08;70.45
65800;BME280;52544;48.116;11.660;2023-02-19T00:36:54;96036.84;;;11.10;70.46
65800;BME280;52544;48.116;11.660;2023-02-19T00:39:20;96038.66;;;11.09;70.33
65800;BME280;52544;48.116;11.660;2023-02-19T00:41:45;96038.16;;;11.04;70.67
65800;BME280;52544;48.116;11.660;2023-02-19T00:44:11;96030.59;;;10.99;70.73
65800;BME280;52544;48.116;11.660;2023-02-19T00:46:40;96018.53;;;11.07;70.40
65800;BME280;52544;48.116;11.660;2023-02-19T00:49:07;96026.50;;;11.07;70.26
65800;BME280;52544;48.116;11.660;2023-02-19T00:51:36;96024.81;;;11.06;70.38
65800;BME280;52544;48.116;11.660;2023-02-19T00:54:02;96027.00;;;11.00;70.58
65800;BME280;52544;48.116;11.660;2023-02-19T00:56:27;96028.31;;;10.95;71.13
65800;BME280;52544;48.116;11.660;2023-02-19T00:58:53;96019.44;;;10.96;71.26
65800;BME280;52544;48.116;11.660;2023-02-19T01:01:19;96026.41;;;10.97;71.06
65800;BME280;52544;48.116;11.660;2023-02-19T01:03:45;96017.72;;;10.95;71.21
65800;BME280;52544;48.116;11.660;2023-02-19T01:06:13;96009.41;;;10.99;70.87
65800;BME280;52544;48.116;11.660;2023-02-19T01:08:39;96008.47;;;11.00;71.14
65800;BME280;52544;48.116;11.660;2023-02-19T01:11:06;96007.94;;;11.07;70.62
65800;BME280;52544;48.116;11.660;2023-02-19T01:13:33;96012.06;;;10.99;70.94
65800;BME280;52544;48.116;11.660;2023-02-19T01:16:05;96010.03;;;10.92;71.49
65800;BME280;52544;48.116;11.660;2023-02-19T01:18:31;96009.16;;;10.91;71.57
65800;BME280;52544;48.116;11.660;2023-02-19T01:20:56;96001.00;;;10.94;71.37
65800;BME280;52544;48.116;11.660;2023-02-19T01:23:22;95998.94;;;10.98;71.41
65800;BME280;52544;48.116;11.660;2023-02-19T01:25:47;96005.09;;;10.87;72.13
65800;BME280;52544;48.116;11.660;2023-02-19T01:28:12;95993.56;;;10.88;71.76
65800;BME280;52544;48.116;11.660;2023-02-19T01:30:38;95988.63;;;10.84;72.60
65800;BME280;52544;48.116;11.660;2023-02-19T01:33:07;95996.56;;;10.84;72.65
65800;BME280;52544;48.116;11.660;2023-02-19T01:35:33;95994.63;;;10.86;72.51
65800;BME280;52544;48.116;11.660;2023-02-19T01:38:02;95984.28;;;10.83;72.69
65800;BME280;52544;48.116;11.660;2023-02-19T01:40:27;95988.59;;;10.95;71.58
65800;BME280;52544;48.116;11.660;2023-02-19T01:42:52;95993.88;;;10.95;71.81
65800;BME280;52544;48.116;11.660;2023-02-19T01:45:26;95998.94;;;10.87;72.12
65800;BME280;52544;48.116;11.660;2023-02-19T01:47:55;95993.41;;;10.90;72.09
65800;BME280;52544;48.116;11.660;2023-02-19T01:50:25;95991.75;;;10.89;72.07
65800;BME280;52544;48.116;11.660;2023-02-19T01:52:52;95984.03;;;10.86;71.91
65800;BME280;52544;48.116;11.660;2023-02-19T01:55:18;95978.59;;;10.87;72.29
65800;BME280;52544;48.116;11.660;2023-02-19T01:57:45;95978.03;;;10.84;72.18
65800;BME280;52544;48.116;11.660;2023-02-19T02:00:15;95974.91;;;10.79;72.66
65800;BME280;52544;48.116;11.660;2023-02-19T02:02:42;95966.00;;;10.80;72.62
65800;BME280;52544;48.116;11.660;2023-02-19T02:06:04;95972.25;;;10.79;72.97
65800;BME280;52544;48.116;11.660;2023-02-19T02:08:04;95969.88;;;10.75;73.01
65800;BME280;52544;48.116;11.660;2023-02-19T02:10:48;95977.06;;;10.73;73.48
65800;BME280;52544;48.116;11.660;2023-02-19T02:13:14;95972.97;;;10.81;73.66
65800;BME280;52544;48.116;11.660;2023-02-19T02:16:06;95970.34;;;10.81;74.08
65800;BME280;52544;48.116;11.660;2023-02-19T02:32:14;95960.03;;;10.33;82.62
65800;BME280;52544;48.116;11.660;2023-02-19T02:34:48;95960.41;;;10.28;83.91
65800;BME280;52544;48.116;11.660;2023-02-19T02:37:16;95951.09;;;10.22;84.77
65800;BME280;52544;48.116;11.660;2023-02-19T02:39:44;95943.88;;;10.13;85.82
65800;BME280;52544;48.116;11.660;2023-02-19T02:42:10;95948.31;;;10.13;85.97
65800;BME280;52544;48.116;11.660;2023-02-19T02:44:51;95948.69;;;10.08;86.75
65800;BME280;52544;48.116;11.660;2023-02-19T02:47:43;95947.94;;;9.95;88.70
65800;BME280;52544;48.116;11.660;2023-02-19T02:50:19;95942.28;;;9.88;90.18
65800;BME280;52544;48.116;11.660;2023-02-19T02:52:50;95946.59;;;9.78;92.48
65800;BME280;52544;48.116;11.660;2023-02-19T02:55:40;95934.94;;;9.69;94.45
65800;BME280;52544;48.116;11.660;2023-02-19T02:58:07;95925.44;;;9.67;94.24
65800;BME280;52544;48.116;11.660;2023-02-19T03:00:34;95932.88;;;9.62;95.97
65800;BME280;52544;48.116;11.660;2023-02-19T03:03:22;95924.91;;;9.50;97.28
65800;BME280;52544;48.116;11.660;2023-02-19T03:05:51;95915.16;;;9.40;99.63
65800;BME280;52544;48.116;11.660;2023-02-19T03:08:29;95922.97;;;9.41;98.41
65800;BME280;52544;48.116;11.660;2023-02-19T03:10:59;95908.22;;;9.39;98.13
65800;BME280;52544;48.116;11.660;2023-02-19T03:13:46;95918.50;;;9.31;99.37
65800;BME280;52544;48.116;11.660;2023-02-19T03:16:35;95910.19;;;9.24;100.00
65800;BME280;52544;48.116;11.660;2023-02-19T03:19:24;95920.34;;;9.17;100.00
65800;BME280;52544;48.116;11.660;2023-02-19T03:21:58;95898.03;;;9.10;100.00
65800;BME280;52544;48.116;11.660;2023-02-19T03:24:28;95928.25;;;9.06;100.00
65800;BME280;52544;48.116;11.660;2023-02-19T03:27:15;95923.19;;;9.03;100.00
65800;BME280;52544;48.116;11.660;2023-02-19T03:29:43;95921.50;;;9.02;100.00
65800;BME280;52544;48.116;11.660;2023-02-19T03:32:20;95912.81;;;8.89;100.00
65800;BME280;52544;48.116;11.660;2023-02-19T03:34:54;95921.56;;;8.89;100.00
65800;BME280;52544;48.116;11.660;2023-02-19T03:37:28;95912.75;;;8.77;100.00
65800;BME280;52544;48.116;11.660;2023-02-19T03:39:54;95919.69;;;8.79;100.00
65800;BME280;52544;48.116;11.660;2023-02-19T03:42:30;95925.22;;;8.75;100.00
65800;BME280;52544;48.116;11.660;2023-02-19T03:45:28;95923.97;;;8.68;100.00
65800;BME280;52544;48.116;11.660;2023-02-19T03:48:12;95923.97;;;8.68;100.00
65800;BME280;52544;48.116;11.660;2023-02-19T03:50:47;95917.22;;;8.64;100.00
65800;BME280;52544;48.116;11.660;2023-02-19T03:56:08;95915.88;;;8.59;100.00
65800;BME280;52544;48.116;11.660;2023-02-19T03:58:52;95915.81;;;8.47;100.00
65800;BME280;52544;48.116;11.660;2023-02-19T04:01:46;95918.31;;;8.49;100.00
65800;BME280;52544;48.116;11.660;2023-02-19T04:04:33;95913.28;;;8.46;100.00
65800;BME280;52544;48.116;11.660;2023-02-19T04:07:00;95908.84;;;8.46;100.00
65800;BME280;52544;48.116;11.660;2023-02-19T04:09:34;95912.66;;;8.42;100.00
65800;BME280;52544;48.116;11.660;2023-02-19T04:12:01;95925.09;;;8.40;100.00
65800;BME280;52544;48.116;11.660;2023-02-19T04:14:48;95906.63;;;8.27;100.00
65800;BME280;52544;48.116;11.660;2023-02-19T04:17:20;95901.66;;;8.36;100.00
65800;BME280;52544;48.116;11.660;2023-02-19T04:19:48;95905.47;;;8.32;100.00
65800;BME280;52544;48.116;11.660;2023-02-19T04:22:16;95891.56;;;8.30;100.00
65800;BME280;52544;48.116;11.660;2023-02-19T04:24:49;95880.06;;;8.31;100.00
65800;BME280;52544;48.116;11.660;2023-02-19T04:27:16;95889.88;;;8.29;100.00
65800;BME280;52544;48.116;11.660;2023-02-19T04:29:42;95891.78;;;8.26;100.00
65800;BME280;52544;48.116;11.660;2023-02-19T04:32:11;95900.53;;;8.27;100.00
65800;BME280;52544;48.116;11.660;2023-02-19T04:34:36;95893.13;;;8.32;100.00
65800;BME280;52544;48.116;11.660;2023-02-19T04:37:02;95904.44;;;8.21;100.00
65800;BME280;52544;48.116;11.660;2023-02-19T04:39:27;95910.22;;;8.26;100.00
65800;BME280;52544;48.116;11.660;2023-02-19T04:41:53;95909.06;;;8.31;100.00
65800;BME280;52544;48.116;11.660;2023-02-19T04:44:19;95899.91;;;8.23;100.00
65800;BME280;52544;48.116;11.660;2023-02-19T04:46:44;95908.63;;;8.24;100.00
65800;BME280;52544;48.116;11.660;2023-02-19T04:49:09;95909.28;;;8.27;100.00
65800;BME280;52544;48.116;11.660;2023-02-19T04:51:35;95917.09;;;8.29;100.00
65800;BME280;52544;48.116;11.660;2023-02-19T04:54:00;95913.53;;;8.17;100.00
65800;BME280;52544;48.116;11.660;2023-02-19T04:56:26;95923.63;;;8.23;100.00
65800;BME280;52544;48.116;11.660;2023-02-19T04:58:51;95912.88;;;8.26;100.00
65800;BME280;52544;48.116;11.660;2023-02-19T05:01:17;95917.41;;;8.24;100.00
65800;BME280;52544;48.116;11.660;2023-02-19T05:03:43;95920.06;;;8.24;100.00
65800;BME280;52544;48.116;11.660;2023-02-19T05:06:10;95935.13;;;8.22;100.00
65800;BME280;52544;48.116;11.660;2023-02-19T05:08:37;95920.25;;;8.21;100.00
65800;BME280;52544;48.116;11.660;2023-02-19T05:11:04;95924.59;;;8.22;100.00
65800;BME280;52544;48.116;11.660;2023-02-19T05:13:30;95930.47;;;8.26;100.00
65800;BME280;52544;48.116;11.660;2023-02-19T05:15:58;95923.41;;;8.26;100.00
65800;BME280;52544;48.116;11.660;2023-02-19T05:18:24;95927.22;;;8.22;100.00
65800;BME280;52544;48.116;11.660;2023-02-19T05:20:51;95924.91;;;8.18;100.00
65800;BME280;52544;48.116;11.660;2023-02-19T05:23:17;95921.94;;;8.22;100.00
65800;BME280;52544;48.116;11.660;2023-02-19T05:25:43;95917.72;;;8.33;100.00
65800;BME280;52544;48.116;11.660;2023-02-19T05:28:08;95924.88;;;8.31;100.00
65800;BME280;52544;48.116;11.660;2023-02-19T05:30:51;95919.81;;;8.27;100.00
65800;BME280;52544;48.116;11.660;2023-02-19T05:33:18;95935.09;;;8.35;100.00
65800;BME280;52544;48.116;11.660;2023-02-19T05:35:54;95934.72;;;8.29;100.00
65800;BME280;52544;48.116;11.660;2023-02-19T05:38:20;95933.75;;;8.30;100.00
65800;BME280;52544;48.116;11.660;2023-02-19T05:40:46;95943.13;;;8.34;100.00
65800;BME280;52544;48.116;11.660;2023-02-19T05:43:12;95948.75;;;8.42;100.00
65800;BME280;52544;48.116;11.660;2023-02-19T05:45:38;95947.28;;;8.38;100.00
65800;BME280;52544;48.116;11.660;2023-02-19T05:48:05;95941.88;;;8.39;100.00
65800;BME280;52544;48.116;11.660;2023-02-19T05:50:32;95948.75;;;8.42;100.00
65800;BME280;52544;48.116;11.660;2023-02-19T05:53:02;95943.34;;;8.43;100.00
65800;BME280;52544;48.116;11.660;2023-02-19T05:55:29;95947.44;;;8.47;100.00
65800;BME280;52544;48.116;11.660;2023-02-19T05:57:54;95954.66;;;8.45;100.00
65800;BME280;52544;48.116;11.660;2023-02-19T06:00:20;95952.59;;;8.49;100.00
65800;BME280;52544;48.116;11.660;2023-02-19T06:02:46;95956.50;;;8.56;100.00
65800;BME280;52544;48.116;11.660;2023-02-19T06:05:12;95961.16;;;8.52;100.00
65800;BME280;52544;48.116;11.660;2023-02-19T06:07:38;95961.34;;;8.49;100.00
65800;BME280;52544;48.116;11.660;2023-02-19T06:10:05;95960.31;;;8.52;100.00
65800;BME280;52544;48.116;11.660;2023-02-19T06:12:31;95954.91;;;8.54;100.00
65800;BME280;52544;48.116;11.660;2023-02-19T06:14:57;95962.63;;;8.57;100.00
65800;BME280;52544;48.116;11.660;2023-02-19T06:17:22;95977.41;;;8.59;100.00
65800;BME280;52544;48.116;11.660;2023-02-19T06:19:47;95967.81;;;8.58;100.00
65800;BME280;52544;48.116;11.660;2023-02-19T06:22:14;95967.69;;;8.60;100.00
65800;BME280;52544;48.116;11.660;2023-02-19T06:24:39;95969.81;;;8.55;100.00
65800;BME280;52544;48.116;11.660;2023-02-19T06:27:06;95976.31;;;8.62;100.00
65800;BME280;52544;48.116;11.660;2023-02-19T06:29:32;95966.41;;;8.65;100.00
65800;BME280;52544;48.116;11.660;2023-02-19T06:31:58;95980.38;;;8.55;100.00
65800;BME280;52544;48.116;11.660;2023-02-19T06:34:24;95978.88;;;8.63;100.00
65800;BME280;52544;48.116;11.660;2023-02-19T06:36:50;95994.91;;;8.60;100.00
65800;BME280;52544;48.116;11.660;2023-02-19T06:39:15;95993.00;;;8.62;100.00
65800;BME280;52544;48.116;11.660;2023-02-19T06:41:41;95995.53;;;8.64;100.00
65800;BME280;52544;48.116;11.660;2023-02-19T06:44:06;95992.56;;;8.68;100.00
65800;BME280;52544;48.116;11.660;2023-02-19T06:46:32;96003.25;;;8.67;100.00
65800;BME280;52544;48.116;11.660;2023-02-19T06:48:58;96006.47;;;8.70;100.00
65800;BME280;52544;48.116;11.660;2023-02-19T06:51:23;96010.38;;;8.77;99.98
65800;BME280;52544;48.116;11.660;2023-02-19T06:53:51;96004.38;;;8.75;100.00
65800;BME280;52544;48.116;11.660;2023-02-19T06:56:29;96013.22;;;8.74;100.00
65800;BME280;52544;48.116;11.660;2023-02-19T06:58:57;96004.59;;;8.72;100.00
65800;BME280;52544;48.116;11.660;2023-02-19T07:01:27;96021.78;;;8.78;100.00
65800;BME280;52544;48.116;11.660;2023-02-19T07:03:53;96014.09;;;8.75;100.00
65800;BME280;52544;48.116;11.660;2023-02-19T07:06:21;96024.72;;;8.86;100.00
65800;BME280;52544;48.116;11.660;2023-02-19T07:08:46;96035.78;;;8.91;99.89
65800;BME280;52544;48.116;11.660;2023-02-19T07:11:12;96032.53;;;8.88;99.69
65800;BME280;52544;48.116;11.660;2023-02-19T07:13:37;96044.44;;;8.93;99.89
65800;BME280;52544;48.116;11.660;2023-02-19T07:16:07;96039.56;;;9.00;99.24
65800;BME280;52544;48.116;11.660;2023-02-19T07:18:33;96046.31;;;9.04;99.10
65800;BME280;52544;48.116;11.660;2023-02-19T07:21:02;96052.66;;;9.01;99.43
65800;BME280;52544;48.116;11.660;2023-02-19T07:23:28;96048.84;;;9.06;98.17
65800;BME280;52544;48.116;11.660;2023-02-19T07:25:53;96050.75;;;9.04;99.12
65800;BME280;52544;48.116;11.660;2023-02-19T07:28:19;96051.81;;;9.01;98.99
65800;BME280;52544;48.116;11.660;2023-02-19T07:30:44;96054.78;;;8.96;100.00
65800;BME280;52544;48.116;11.660;2023-02-19T07:33:10;96064.28;;;8.99;100.00
65800;BME280;52544;48.116;11.660;2023-02-19T07:35:35;96057.59;;;9.06;100.00
65800;BME280;52544;48.116;11.660;2023-02-19T07:38:01;96055.06;;;9.05;99.49
65800;BME280;52544;48.116;11.660;2023-02-19T07:40:26;96063.84;;;9.05;99.83
65800;BME280;52544;48.116;11.660;2023-02-19T07:42:51;96061.09;;;9.07;99.79
65800;BME280;52544;48.116;11.660;2023-02-19T07:45:17;96078.72;;;9.06;100.00
65800;BME280;52544;48.116;11.660;2023-02-19T07:47:42;96077.25;;;9.02;100.00
65800;BME280;52544;48.116;11.660;2023-02-19T07:50:08;96072.38;;;9.09;100.00
65800;BME280;52544;48.116;11.660;2023-02-19T07:52:33;96084.53;;;9.11;100.00
65800;BME280;52544;48.116;11.660;2023-02-19T07:54:59;96092.94;;;9.16;99.44
65800;BME280;52544;48.116;11.660;2023-02-19T07:57:26;96090.44;;;9.15;98.80
65800;BME280;52544;48.116;11.660;2023-02-19T07:59:52;96099.06;;;9.17;99.99
65800;BME280;52544;48.116;11.660;2023-02-19T08:02:18;96096.84;;;9.23;98.52
65800;BME280;52544;48.116;11.660;2023-02-19T08:05:04;96104.13;;;9.20;99.23
65800;BME280;52544;48.116;11.660;2023-02-19T08:07:31;96107.75;;;9.19;98.78
65800;BME280;52544;48.116;11.660;2023-02-19T08:09:57;96110.38;;;9.19;98.20
65800;BME280;52544;48.116;11.660;2023-02-19T08:12:41;96109.53;;;9.18;98.01
65800;BME280;52544;48.116;11.660;2023-02-19T08:15:24;96114.41;;;9.12;98.39
65800;BME280;52544;48.116;11.660;2023-02-19T08:17:50;96114.41;;;9.12;100.00
65800;BME280;52544;48.116;11.660;2023-02-19T08:20:15;96123.16;;;9.12;100.00
65800;BME280;52544;48.116;11.660;2023-02-19T08:22:40;96122.13;;;9.15;99.50
65800;BME280;52544;48.116;11.660;2023-02-19T08:25:06;96125.72;;;9.14;100.00
65800;BME280;52544;48.116;11.660;2023-02-19T08:27:32;96126.88;;;9.10;99.79
65800;BME280;52544;48.116;11.660;2023-02-19T08:29:57;96121.38;;;9.13;100.00
65800;BME280;52544;48.116;11.660;2023-02-19T08:32:23;96120.63;;;9.23;97.81
65800;BME280;52544;48.116;11.660;2023-02-19T08:34:48;96126.63;;;9.25;98.38
65800;BME280;52544;48.116;11.660;2023-02-19T08:37:13;96129.72;;;9.19;99.51
65800;BME280;52544;48.116;11.660;2023-02-19T08:39:39;96129.38;;;9.24;98.94
65800;BME280;52544;48.116;11.660;2023-02-19T08:42:04;96133.50;;;9.28;98.44
65800;BME280;52544;48.116;11.660;2023-02-19T08:44:31;96136.75;;;9.32;98.71
65800;BME280;52544;48.116;11.660;2023-02-19T08:46:56;96137.28;;;9.37;97.37
65800;BME280;52544;48.116;11.660;2023-02-19T08:49:25;96144.03;;;9.41;96.19
65800;BME280;52544;48.116;11.660;2023-02-19T08:51:51;96139.25;;;9.46;95.44
65800;BME280;52544;48.116;11.660;2023-02-19T08:54:16;96143.69;;;9.45;95.35
65800;BME280;52544;48.116;11.660;2023-02-19T08:56:41;96146.53;;;9.42;94.86
65800;BME280;52544;48.116;11.660;2023-02-19T08:59:07;96152.91;;;9.40;95.85
65800;BME280;52544;48.116;11.660;2023-02-19T09:01:32;96150.25;;;9.40;95.04
65800;BME280;52544;48.116;11.660;2023-02-19T09:03:58;96162.84;;;9.36;95.90
65800;BME280;52544;48.116;11.660;2023-02-19T09:06:24;96164.84;;;9.33;96.78
65800;BME280;52544;48.116;11.660;2023-02-19T09:08:49;96161.59;;;9.29;94.44
65800;BME280;52544;48.116;11.660;2023-02-19T09:11:15;96167.69;;;9.30;95.46
65800;BME280;52544;48.116;11.660;2023-02-19T09:13:41;96160.75;;;9.29;95.81
65800;BME280;52544;48.116;11.660;2023-02-19T09:16:06;96162.88;;;9.23;95.18
65800;BME280;52544;48.116;11.660;2023-02-19T09:18:32;96163.59;;;9.25;91.03
65800;BME280;52544;48.116;11.660;2023-02-19T09:20:59;96159.47;;;9.21;93.35
65800;BME280;52544;48.116;11.660;2023-02-19T09:23:25;96166.03;;;9.29;94.23
65800;BME280;52544;48.116;11.660;2023-02-19T09:25:56;96162.72;;;9.38;94.55
65800;BME280;52544;48.116;11.660;2023-02-19T09:28:24;96170.03;;;9.34;93.88
65800;BME280;52544;48.116;11.660;2023-02-19T09:30:49;96170.88;;;9.35;90.47
65800;BME280;52544;48.116;11.660;2023-02-19T09:33:14;96170.03;;;9.34;91.35
65800;BME280;52544;48.116;11.660;2023-02-19T09:35:40;96172.16;;;9.29;92.25
65800;BME280;52544;48.116;11.660;2023-02-19T09:38:05;96166.47;;;9.22;86.58
65800;BME280;52544;48.116;11.660;2023-02-19T09:40:31;96172.28;;;9.27;84.22
65800;BME280;52544;48.116;11.660;2023-02-19T09:42:57;96172.34;;;9.39;87.65
65800;BME280;52544;48.116;11.660;2023-02-19T09:45:24;96173.28;;;9.74;87.22
65800;BME280;52544;48.116;11.660;2023-02-19T09:47:56;96170.31;;;10.27;83.67
65800;BME280;52544;48.116;11.660;2023-02-19T09:50:30;96174.94;;;10.23;80.05
65800;BME280;52544;48.116;11.660;2023-02-19T09:53:01;96188.00;;;10.02;77.90
65800;BME280;52544;48.116;11.660;2023-02-19T09:55:35;96186.22;;;9.66;76.87
65800;BME280;52544;48.116;11.660;2023-02-19T09:58:18;96199.63;;;9.26;79.17
65800;BME280;52544;48.116;11.660;2023-02-19T10:00:48;96190.97;;;9.24;80.27
65800;BME280;52544;48.116;11.660;2023-02-19T10:03:23;96187.81;;;9.19;79.45
65800;BME280;52544;48.116;11.660;2023-02-19T10:05:51;96196.91;;;9.15;78.58
65800;BME280;52544;48.116;11.660;2023-02-19T10:08:19;96200.06;;;9.20;78.42
65800;BME280;52544;48.116;11.660;2023-02-19T10:10:45;96183.66;;;9.28;78.32
65800;BME280;52544;48.116;11.660;2023-02-19T10:13:22;96194.88;;;9.32;76.58
65800;BME280;52544;48.116;11.660;2023-02-19T10:15:53;96196.66;;;9.31;77.11
65800;BME280;52544;48.116;11.660;2023-02-19T10:18:26;96194.28;;;9.65;76.77
65800;BME280;52544;48.116;11.660;2023-02-19T10:20:55;96194.78;;;9.94;74.14
65800;BME280;52544;48.116;11.660;2023-02-19T10:23:22;96205.78;;;10.24;71.95
65800;BME280;52544;48.116;11.660;2023-02-19T10:25:52;96194.03;;;10.29;69.18
65800;BME280;52544;48.116;11.660;2023-02-19T10:28:20;96199.47;;;10.38;67.57
65800;BME280;52544;48.116;11.660;2023-02-19T10:30:58;96200.56;;;10.93;65.80
65800;BME280;52544;48.116;11.660;2023-02-19T10:33:24;96196.34;;;10.91;62.70
65800;BME280;52544;48.116;11.660;2023-02-19T10:36:02;96200.09;;;10.99;62.74
65800;BME280;52544;48.116;11.660;2023-02-19T10:38:33;96210.09;;;11.41;60.92
65800;BME280;52544;48.116;11.660;2023-02-19T10:43:31;96207.03;;;12.01;59.77
65800;BME280;52544;48.116;11.660;2023-02-19T10:46:01;96197.34;;;12.44;57.17
65800;BME280;52544;48.116;11.660;2023-02-19T10:48:30;96196.78;;;12.61;54.46
65800;BME280;52544;48.116;11.660;2023-02-19T10:51:05;96201.25;;;12.61;53.60
65800;BME280;52544;48.116;11.660;2023-02-19T10:53:41;96190.63;;;12.40;55.11
65800;BME280;52544;48.116;11.660;2023-02-19T10:56:24;96192.84;;;12.56;54.85
65800;BME280;52544;48.116;11.660;2023-02-19T10:58:50;96188.31;;;12.67;53.82
65800;BME280;52544;48.116;11.660;2023-02-19T11:01:21;96191.13;;;12.66;53.57
65800;BME280;52544;48.116;11.660;2023-02-19T11:04:13;96201.16;;;12.62;52.92
65800;BME280;52544;48.116;11.660;2023-02-19T11:06:36;96197.50;;;12.42;53.29
65800;BME280;52544;48.116;11.660;2023-02-19T11:09:02;96193.16;;;12.09;54.35
65800;BME280;52544;48.116;11.660;2023-02-19T11:11:36;96200.19;;;11.76;54.98
65800;BME280;52544;48.116;11.660;2023-02-19T11:14:23;96194.91;;;11.65;54.96
65800;BME280;52544;48.116;11.660;2023-02-19T11:16:51;96195.16;;;11.51;55.59
65800;BME280;52544;48.116;11.660;2023-02-19T11:22:02;96182.06;;;11.27;57.03
65800;BME280;52544;48.116;11.660;2023-02-19T11:24:47;96196.84;;;11.07;57.11
65800;BME280;52544;48.116;11.660;2023-02-19T11:27:21;96195.53;;;11.01;58.64
65800;BME280;52544;48.116;11.660;2023-02-19T11:29:47;96193.47;;;10.94;57.66
65800;BME280;52544;48.116;11.660;2023-02-19T11:32:30;96188.75;;;10.86;58.76
65800;BME280;52544;48.116;11.660;2023-02-19T11:35:21;96200.06;;;10.77;58.78
65800;BME280;52544;48.116;11.660;2023-02-19T11:37:57;96191.63;;;10.72;58.92
65800;BME280;52544;48.116;11.660;2023-02-19T11:43:05;96187.78;;;10.76;58.94
65800;BME280;52544;48.116;11.660;2023-02-19T11:48:40;96194.53;;;10.91;59.53
65800;BME280;52544;48.116;11.660;2023-02-19T12:00:25;96202.97;;;11.08;66.03
65800;BME280;52544;48.116;11.660;2023-02-19T12:05:47;96213.31;;;10.42;68.54
65800;BME280;52544;48.116;11.660;2023-02-19T12:14:08;96204.75;;;10.38;62.13
65800;BME280;52544;48.116;11.660;2023-02-19T12:27:59;96207.41;;;10.85;58.13
65800;BME280;52544;48.116;11.660;2023-02-19T12:30:41;96208.47;;;10.82;57.88
65800;BME280;52544;48.116;11.660;2023-02-19T12:36:26;96205.97;;;10.81;58.01
65800;BME280;52544;48.116;11.660;2023-02-19T12:42:02;96202.56;;;10.79;57.26
65800;BME280;52544;48.116;11.660;2023-02-19T12:44:41;96221.59;;;10.72;58.60
65800;BME280;52544;48.116;11.660;2023-02-19T12:47:16;96227.38;;;10.77;58.82
65800;BME280;52544;48.116;11.660;2023-02-19T12:49:49;96235.81;;;10.83;59.34
65800;BME280;52544;48.116;11.660;2023-02-19T12:52:29;96233.38;;;10.68;60.65
65800;BME280;52544;48.116;11.660;2023-02-19T12:55:02;96249.31;;;10.56;62.49
65800;BME280;52544;48.116;11.660;2023-02-19T12:57:32;96254.41;;;10.35;64.46
65800;BME280;52544;48.116;11.660;2023-02-19T13:00:23;96249.03;;;10.23;64.33
65800;BME280;52544;48.116;11.660;2023-02-19T13:10:58;96256.34;;;9.96;62.33
65800;BME280;52544;48.116;11.660;2023-02-19T13:13:38;96247.94;;;10.02;59.48
65800;BME280;52544;48.116;11.660;2023-02-19T13:16:09;96240.13;;;10.00;58.93
65800;BME280;52544;48.116;11.660;2023-02-19T13:18:45;96253.03;;;10.05;58.73
65800;BME280;52544;48.116;11.660;2023-02-19T13:21:13;96258.75;;;9.99;59.06
65800;BME280;52544;48.116;11.660;2023-02-19T13:24:01;96249.56;;;9.92;59.74
65800;BME280;52544;48.116;11.660;2023-02-19T13:37:23;96237.72;;;10.21;61.35
65800;BME280;52544;48.116;11.660;2023-02-19T13:39:51;96232.31;;;10.23;60.28
65800;BME280;52544;48.116;11.660;2023-02-19T13:44:49;96225.56;;;10.19;60.60
65800;BME280;52544;48.116;11.660;2023-02-19T13:50:26;96223.13;;;9.92;59.34
65800;BME280;52544;48.116;11.660;2023-02-19T13:53:47;96233.94;;;9.89;59.44
65800;BME280;52544;48.116;11.660;2023-02-19T14:01:18;96254.06;;;9.79;61.97
65800;BME280;52544;48.116;11.660;2023-02-19T14:03:54;96259.84;;;9.84;63.05
65800;BME280;52544;48.116;11.660;2023-02-19T14:20:00;96275.97;;;9.55;63.09
65800;BME280;52544;48.116;11.660;2023-02-19T14:28:21;96265.53;;;9.41;65.96
65800;BME280;52544;48.116;11.660;2023-02-19T14:33:37;96267.56;;;9.37;65.13
65800;BME280;52544;48.116;11.660;2023-02-19T14:36:32;96267.22;;;9.29;65.35
65800;BME280;52544;48.116;11.660;2023-02-19T14:41:26;96281.84;;;9.35;65.80
65800;BME280;52544;48.116;11.660;2023-02-19T14:43:55;96274.84;;;9.34;66.38
65800;BME280;52544;48.116;11.660;2023-02-19T14:46:43;96266.06;;;9.33;66.64
65800;BME280;52544;48.116;11.660;2023-02-19T14:49:29;96265.22;;;9.33;67.06
65800;BME280;52544;48.116;11.660;2023-02-19T14:51:59;96264.91;;;9.37;67.11
65800;BME280;52544;48.116;11.660;2023-02-19T14:57:18;96282.13;;;9.30;67.35
65800;BME280;52544;48.116;11.660;2023-02-19T15:02:46;96287.19;;;9.20;67.37
65800;BME280;52544;48.116;11.660;2023-02-19T15:05:20;96286.25;;;9.21;67.69
65800;BME280;52544;48.116;11.660;2023-02-19T15:07:47;96292.41;;;9.22;68.22
65800;BME280;52544;48.116;11.660;2023-02-19T15:10:13;96293.00;;;9.25;68.09